sensor_id;sensor_type;location;lat;lon;timestamp;P1;durP1;ratioP1;P2;durP2;ratioP2
69703;SDS011;56967;43.538;-5.646;2022-07-22T00:02:14;8.52;;;3.60;;
69703;SDS011;56967;43.538;-5.646;2022-07-22T00:04:40;6.18;;;3.47;;
69703;SDS011;56967;43.538;-5.646;2022-07-22T00:07:06;6.20;;;3.40;;
69703;SDS011;56967;43.538;-5.646;2022-07-22T00:09:31;6.07;;;3.45;;
69703;SDS011;56967;43.538;-5.646;2022-07-22T00:11:58;5.93;;;3.60;;
69703;SDS011;56967;43.538;-5.646;2022-07-22T00:14:24;5.70;;;3.90;;
69703;SDS011;56967;43.538;-5.646;2022-07-22T00:16:49;6.18;;;4.07;;
69703;SDS011;56967;43.538;-5.646;2022-07-22T00:19:15;6.85;;;3.42;;
69703;SDS011;56967;43.538;-5.646;2022-07-22T00:21:40;7.18;;;3.97;;
69703;SDS011;56967;43.538;-5.646;2022-07-22T00:24:07;8.15;;;3.67;;
69703;SDS011;56967;43.538;-5.646;2022-07-22T00:26:33;6.00;;;3.75;;
69703;SDS011;56967;43.538;-5.646;2022-07-22T00:28:59;5.93;;;3.60;;
69703;SDS011;56967;43.538;-5.646;2022-07-22T00:31:24;10.55;;;4.80;;
69703;SDS011;56967;43.538;-5.646;2022-07-22T00:33:50;13.90;;;5.03;;
69703;SDS011;56967;43.538;-5.646;2022-07-22T00:36:15;17.98;;;4.82;;
69703;SDS011;56967;43.538;-5.646;2022-07-22T00:38:41;13.05;;;5.03;;
69703;SDS011;56967;43.538;-5.646;2022-07-22T00:41:06;13.25;;;5.07;;
69703;SDS011;56967;43.538;-5.646;2022-07-22T00:48:43;12.60;;;5.07;;
69703;SDS011;56967;43.538;-5.646;2022-07-22T00:51:09;11.05;;;5.05;;
69703;SDS011;56967;43.538;-5.646;2022-07-22T00:53:34;16.98;;;5.82;;
69703;SDS011;56967;43.538;-5.646;2022-07-22T00:56:01;14.10;;;5.20;;
69703;SDS011;56967;43.538;-5.646;2022-07-22T00:58:28;12.02;;;5.60;;
69703;SDS011;56967;43.538;-5.646;2022-07-22T01:00:54;15.98;;;6.28;;
69703;SDS011;56967;43.538;-5.646;2022-07-22T01:03:19;15.23;;;5.50;;
69703;SDS011;56967;43.538;-5.646;2022-07-22T01:05:45;12.73;;;5.25;;
69703;SDS011;56967;43.538;-5.646;2022-07-22T01:08:10;15.70;;;5.80;;
69703;SDS011;56967;43.538;-5.646;2022-07-22T01:10:37;12.75;;;5.22;;
69703;SDS011;56967;43.538;-5.646;2022-07-22T01:13:02;9.00;;;5.00;;
69703;SDS011;56967;43.538;-5.646;2022-07-22T01:15:28;12.18;;;5.63;;
69703;SDS011;56967;43.538;-5.646;2022-07-22T01:17:53;11.27;;;5.18;;
69703;SDS011;56967;43.538;-5.646;2022-07-22T01:20:19;13.10;;;5.18;;
69703;SDS011;56967;43.538;-5.646;2022-07-22T01:22:44;12.90;;;5.22;;
69703;SDS011;56967;43.538;-5.646;2022-07-22T01:25:10;11.55;;;5.28;;
69703;SDS011;56967;43.538;-5.646;2022-07-22T01:27:36;11.00;;;4.40;;
69703;SDS011;56967;43.538;-5.646;2022-07-22T01:30:03;8.48;;;4.45;;
69703;SDS011;56967;43.538;-5.646;2022-07-22T01:32:30;11.40;;;5.13;;
69703;SDS011;56967;43.538;-5.646;2022-07-22T01:34:55;12.82;;;4.72;;
69703;SDS011;56967;43.538;-5.646;2022-07-22T01:37:21;10.50;;;4.88;;
69703;SDS011;56967;43.538;-5.646;2022-07-22T01:39:47;9.20;;;4.65;;
69703;SDS011;56967;43.538;-5.646;2022-07-22T01:42:14;11.90;;;4.82;;
69703;SDS011;56967;43.538;-5.646;2022-07-22T01:44:39;10.63;;;5.57;;
69703;SDS011;56967;43.538;-5.646;2022-07-22T01:47:05;12.55;;;4.68;;
69703;SDS011;56967;43.538;-5.646;2022-07-22T01:49:31;10.85;;;5.28;;
69703;SDS011;56967;43.538;-5.646;2022-07-22T01:51:56;16.80;;;5.85;;
69703;SDS011;56967;43.538;-5.646;2022-07-22T01:54:22;14.60;;;5.45;;
69703;SDS011;56967;43.538;-5.646;2022-07-22T01:56:48;18.42;;;5.72;;
69703;SDS011;56967;43.538;-5.646;2022-07-22T01:59:13;17.08;;;5.95;;
69703;SDS011;56967;43.538;-5.646;2022-07-22T02:01:39;14.45;;;5.35;;
69703;SDS011;56967;43.538;-5.646;2022-07-22T02:04:04;15.40;;;5.43;;
69703;SDS011;56967;43.538;-5.646;2022-07-22T02:06:30;16.25;;;5.43;;
69703;SDS011;56967;43.538;-5.646;2022-07-22T02:08:56;13.52;;;5.57;;
69703;SDS011;56967;43.538;-5.646;2022-07-22T02:11:21;15.40;;;5.70;;
69703;SDS011;56967;43.538;-5.646;2022-07-22T02:13:47;18.75;;;6.10;;
69703;SDS011;56967;43.538;-5.646;2022-07-22T02:16:12;12.63;;;5.43;;
69703;SDS011;56967;43.538;-5.646;2022-07-22T02:18:38;13.40;;;5.85;;
69703;SDS011;56967;43.538;-5.646;2022-07-22T02:21:04;14.65;;;5.78;;
69703;SDS011;56967;43.538;-5.646;2022-07-22T02:23:30;14.32;;;6.10;;
69703;SDS011;56967;43.538;-5.646;2022-07-22T02:25:55;14.65;;;6.40;;
69703;SDS011;56967;43.538;-5.646;2022-07-22T02:28:21;10.95;;;5.50;;
69703;SDS011;56967;43.538;-5.646;2022-07-22T02:30:46;12.02;;;5.53;;
69703;SDS011;56967;43.538;-5.646;2022-07-22T02:33:12;14.63;;;5.90;;
69703;SDS011;56967;43.538;-5.646;2022-07-22T02:35:37;10.90;;;5.88;;
69703;SDS011;56967;43.538;-5.646;2022-07-22T02:38:03;18.35;;;5.65;;
69703;SDS011;56967;43.538;-5.646;2022-07-22T02:40:29;12.80;;;5.60;;
69703;SDS011;56967;43.538;-5.646;2022-07-22T02:42:55;13.82;;;5.88;;
69703;SDS011;56967;43.538;-5.646;2022-07-22T02:45:20;15.13;;;5.53;;
69703;SDS011;56967;43.538;-5.646;2022-07-22T02:47:47;11.68;;;5.20;;
69703;SDS011;56967;43.538;-5.646;2022-07-22T02:50:16;11.85;;;5.43;;
69703;SDS011;56967;43.538;-5.646;2022-07-22T02:52:42;11.90;;;4.60;;
69703;SDS011;56967;43.538;-5.646;2022-07-22T02:55:07;14.57;;;5.43;;
69703;SDS011;56967;43.538;-5.646;2022-07-22T02:57:33;11.13;;;5.72;;
69703;SDS011;56967;43.538;-5.646;2022-07-22T02:59:59;16.10;;;6.50;;
69703;SDS011;56967;43.538;-5.646;2022-07-22T03:02:24;11.98;;;4.90;;
69703;SDS011;56967;43.538;-5.646;2022-07-22T03:04:50;11.23;;;4.80;;
69703;SDS011;56967;43.538;-5.646;2022-07-22T03:07:15;12.25;;;5.63;;
69703;SDS011;56967;43.538;-5.646;2022-07-22T03:09:41;13.52;;;5.45;;
69703;SDS011;56967;43.538;-5.646;2022-07-22T03:12:07;18.10;;;6.05;;
69703;SDS011;56967;43.538;-5.646;2022-07-22T03:14:33;12.25;;;5.07;;
69703;SDS011;56967;43.538;-5.646;2022-07-22T03:16:58;11.45;;;5.00;;
69703;SDS011;56967;43.538;-5.646;2022-07-22T03:19:24;13.23;;;6.00;;
69703;SDS011;56967;43.538;-5.646;2022-07-22T03:21:49;11.93;;;5.13;;
69703;SDS011;56967;43.538;-5.646;2022-07-22T03:24:15;11.98;;;5.78;;
69703;SDS011;56967;43.538;-5.646;2022-07-22T03:26:40;14.90;;;3.90;;
69703;SDS011;56967;43.538;-5.646;2022-07-22T03:29:06;14.32;;;5.57;;
69703;SDS011;56967;43.538;-5.646;2022-07-22T03:31:31;20.58;;;4.13;;
69703;SDS011;56967;43.538;-5.646;2022-07-22T03:33:57;16.08;;;4.47;;
69703;SDS011;56967;43.538;-5.646;2022-07-22T03:36:24;18.75;;;5.53;;
69703;SDS011;56967;43.538;-5.646;2022-07-22T03:38:49;19.15;;;5.30;;
69703;SDS011;56967;43.538;-5.646;2022-07-22T03:41:15;17.33;;;5.85;;
69703;SDS011;56967;43.538;-5.646;2022-07-22T03:43:40;22.00;;;6.75;;
69703;SDS011;56967;43.538;-5.646;2022-07-22T03:46:06;24.35;;;6.75;;
69703;SDS011;56967;43.538;-5.646;2022-07-22T03:48:31;18.40;;;6.03;;
69703;SDS011;56967;43.538;-5.646;2022-07-22T03:50:57;20.23;;;7.32;;
69703;SDS011;56967;43.538;-5.646;2022-07-22T03:53:22;23.90;;;7.65;;
69703;SDS011;56967;43.538;-5.646;2022-07-22T03:55:48;22.23;;;6.90;;
69703;SDS011;56967;43.538;-5.646;2022-07-22T03:58:15;22.60;;;7.75;;
69703;SDS011;56967;43.538;-5.646;2022-07-22T04:00:42;21.65;;;7.55;;
69703;SDS011;56967;43.538;-5.646;2022-07-22T04:03:07;20.10;;;8.15;;
69703;SDS011;56967;43.538;-5.646;2022-07-22T04:05:32;25.92;;;8.32;;
69703;SDS011;56967;43.538;-5.646;2022-07-22T04:07:58;17.92;;;7.25;;
69703;SDS011;56967;43.538;-5.646;2022-07-22T04:10:23;18.92;;;7.43;;
69703;SDS011;56967;43.538;-5.646;2022-07-22T04:12:49;15.63;;;7.18;;
69703;SDS011;56967;43.538;-5.646;2022-07-22T04:15:15;22.80;;;6.95;;
69703;SDS011;56967;43.538;-5.646;2022-07-22T04:17:40;17.23;;;8.25;;
69703;SDS011;56967;43.538;-5.646;2022-07-22T04:20:06;18.63;;;7.53;;
69703;SDS011;56967;43.538;-5.646;2022-07-22T04:23:25;22.80;;;8.52;;
69703;SDS011;56967;43.538;-5.646;2022-07-22T04:25:50;22.85;;;8.23;;
69703;SDS011;56967;43.538;-5.646;2022-07-22T04:29:08;25.73;;;8.10;;
69703;SDS011;56967;43.538;-5.646;2022-07-22T04:31:34;20.42;;;7.38;;
69703;SDS011;56967;43.538;-5.646;2022-07-22T04:33:59;22.80;;;6.65;;
69703;SDS011;56967;43.538;-5.646;2022-07-22T04:36:25;21.67;;;7.63;;
69703;SDS011;56967;43.538;-5.646;2022-07-22T04:38:51;21.88;;;7.93;;
69703;SDS011;56967;43.538;-5.646;2022-07-22T04:41:16;24.67;;;7.93;;
69703;SDS011;56967;43.538;-5.646;2022-07-22T04:43:42;22.05;;;7.47;;
69703;SDS011;56967;43.538;-5.646;2022-07-22T04:46:07;17.50;;;5.72;;
69703;SDS011;56967;43.538;-5.646;2022-07-22T04:48:33;18.73;;;6.53;;
69703;SDS011;56967;43.538;-5.646;2022-07-22T04:50:59;19.33;;;7.63;;
69703;SDS011;56967;43.538;-5.646;2022-07-22T04:53:25;18.23;;;8.00;;
69703;SDS011;56967;43.538;-5.646;2022-07-22T04:55:51;14.55;;;7.15;;
69703;SDS011;56967;43.538;-5.646;2022-07-22T04:58:17;14.98;;;6.70;;
69703;SDS011;56967;43.538;-5.646;2022-07-22T05:00:42;17.58;;;7.18;;
69703;SDS011;56967;43.538;-5.646;2022-07-22T05:03:08;18.15;;;7.45;;
69703;SDS011;56967;43.538;-5.646;2022-07-22T05:05:33;19.73;;;5.90;;
69703;SDS011;56967;43.538;-5.646;2022-07-22T05:07:59;19.10;;;8.02;;
69703;SDS011;56967;43.538;-5.646;2022-07-22T05:10:25;21.40;;;6.72;;
69703;SDS011;56967;43.538;-5.646;2022-07-22T05:12:50;18.65;;;7.57;;
69703;SDS011;56967;43.538;-5.646;2022-07-22T05:15:17;18.63;;;6.47;;
69703;SDS011;56967;43.538;-5.646;2022-07-22T05:17:42;11.93;;;6.78;;
69703;SDS011;56967;43.538;-5.646;2022-07-22T05:20:08;12.60;;;6.25;;
69703;SDS011;56967;43.538;-5.646;2022-07-22T05:22:35;16.48;;;6.93;;
69703;SDS011;56967;43.538;-5.646;2022-07-22T05:25:00;15.35;;;6.65;;
69703;SDS011;56967;43.538;-5.646;2022-07-22T05:27:26;18.45;;;7.68;;
69703;SDS011;56967;43.538;-5.646;2022-07-22T05:29:51;15.52;;;7.22;;
69703;SDS011;56967;43.538;-5.646;2022-07-22T05:32:17;16.70;;;6.50;;
69703;SDS011;56967;43.538;-5.646;2022-07-22T05:34:42;14.20;;;5.57;;
69703;SDS011;56967;43.538;-5.646;2022-07-22T05:37:08;17.10;;;6.13;;
69703;SDS011;56967;43.538;-5.646;2022-07-22T05:39:33;13.68;;;5.40;;
69703;SDS011;56967;43.538;-5.646;2022-07-22T05:41:59;13.75;;;7.30;;
69703;SDS011;56967;43.538;-5.646;2022-07-22T05:44:24;22.88;;;9.25;;
69703;SDS011;56967;43.538;-5.646;2022-07-22T05:46:52;17.25;;;6.05;;
69703;SDS011;56967;43.538;-5.646;2022-07-22T05:49:18;17.23;;;7.75;;
69703;SDS011;56967;43.538;-5.646;2022-07-22T05:51:45;12.55;;;6.28;;
69703;SDS011;56967;43.538;-5.646;2022-07-22T05:54:10;12.52;;;6.80;;
69703;SDS011;56967;43.538;-5.646;2022-07-22T05:56:36;12.55;;;6.70;;
69703;SDS011;56967;43.538;-5.646;2022-07-22T05:59:01;13.95;;;6.68;;
69703;SDS011;56967;43.538;-5.646;2022-07-22T06:01:27;10.13;;;5.18;;
69703;SDS011;56967;43.538;-5.646;2022-07-22T06:03:52;13.48;;;6.50;;
69703;SDS011;56967;43.538;-5.646;2022-07-22T06:06:18;15.07;;;5.25;;
69703;SDS011;56967;43.538;-5.646;2022-07-22T06:08:44;16.30;;;5.90;;
69703;SDS011;56967;43.538;-5.646;2022-07-22T06:11:09;12.50;;;4.82;;
69703;SDS011;56967;43.538;-5.646;2022-07-22T06:13:35;12.73;;;4.07;;
69703;SDS011;56967;43.538;-5.646;2022-07-22T06:16:02;10.70;;;4.30;;
69703;SDS011;56967;43.538;-5.646;2022-07-22T06:18:28;10.93;;;3.78;;
69703;SDS011;56967;43.538;-5.646;2022-07-22T06:20:53;7.57;;;4.25;;
69703;SDS011;56967;43.538;-5.646;2022-07-22T06:23:19;8.38;;;3.55;;
69703;SDS011;56967;43.538;-5.646;2022-07-22T06:25:44;13.80;;;3.88;;
69703;SDS011;56967;43.538;-5.646;2022-07-22T06:28:10;12.25;;;4.75;;
69703;SDS011;56967;43.538;-5.646;2022-07-22T06:30:36;12.35;;;3.83;;
69703;SDS011;56967;43.538;-5.646;2022-07-22T06:33:02;13.57;;;3.80;;
69703;SDS011;56967;43.538;-5.646;2022-07-22T06:35:28;7.72;;;3.35;;
69703;SDS011;56967;43.538;-5.646;2022-07-22T06:37:53;13.27;;;2.95;;
69703;SDS011;56967;43.538;-5.646;2022-07-22T06:40:19;8.20;;;3.78;;
69703;SDS011;56967;43.538;-5.646;2022-07-22T06:42:45;10.55;;;3.30;;
69703;SDS011;56967;43.538;-5.646;2022-07-22T06:45:10;10.10;;;3.22;;
69703;SDS011;56967;43.538;-5.646;2022-07-22T06:47:36;10.20;;;4.00;;
69703;SDS011;56967;43.538;-5.646;2022-07-22T06:50:05;7.70;;;3.55;;
69703;SDS011;56967;43.538;-5.646;2022-07-22T06:52:32;7.75;;;3.10;;
69703;SDS011;56967;43.538;-5.646;2022-07-22T06:54:58;7.90;;;3.45;;
69703;SDS011;56967;43.538;-5.646;2022-07-22T06:57:24;5.20;;;3.28;;
69703;SDS011;56967;43.538;-5.646;2022-07-22T06:59:49;5.80;;;3.30;;
69703;SDS011;56967;43.538;-5.646;2022-07-22T07:02:15;6.85;;;2.97;;
69703;SDS011;56967;43.538;-5.646;2022-07-22T07:04:40;8.48;;;2.85;;
69703;SDS011;56967;43.538;-5.646;2022-07-22T07:07:07;6.82;;;2.60;;
69703;SDS011;56967;43.538;-5.646;2022-07-22T07:09:33;6.18;;;2.78;;
69703;SDS011;56967;43.538;-5.646;2022-07-22T07:11:58;5.50;;;2.50;;
69703;SDS011;56967;43.538;-5.646;2022-07-22T07:14:24;10.48;;;2.78;;
69703;SDS011;56967;43.538;-5.646;2022-07-22T07:16:49;8.57;;;2.92;;
69703;SDS011;56967;43.538;-5.646;2022-07-22T07:19:15;9.32;;;2.40;;
69703;SDS011;56967;43.538;-5.646;2022-07-22T07:21:40;5.68;;;2.60;;
69703;SDS011;56967;43.538;-5.646;2022-07-22T07:24:06;3.88;;;2.40;;
69703;SDS011;56967;43.538;-5.646;2022-07-22T07:26:31;6.55;;;3.08;;
69703;SDS011;56967;43.538;-5.646;2022-07-22T07:28:57;9.32;;;2.85;;
69703;SDS011;56967;43.538;-5.646;2022-07-22T07:31:23;4.85;;;2.47;;
69703;SDS011;56967;43.538;-5.646;2022-07-22T07:33:48;8.07;;;2.90;;
69703;SDS011;56967;43.538;-5.646;2022-07-22T07:36:15;5.57;;;2.40;;
69703;SDS011;56967;43.538;-5.646;2022-07-22T07:38:40;6.15;;;2.70;;
69703;SDS011;56967;43.538;-5.646;2022-07-22T07:41:06;8.60;;;2.90;;
69703;SDS011;56967;43.538;-5.646;2022-07-22T07:43:32;7.30;;;3.95;;
69703;SDS011;56967;43.538;-5.646;2022-07-22T07:45:58;5.75;;;3.25;;
69703;SDS011;56967;43.538;-5.646;2022-07-22T07:48:23;10.40;;;3.78;;
69703;SDS011;56967;43.538;-5.646;2022-07-22T07:50:49;5.93;;;3.00;;
69703;SDS011;56967;43.538;-5.646;2022-07-22T07:53:15;8.38;;;2.55;;
69703;SDS011;56967;43.538;-5.646;2022-07-22T07:55:41;8.35;;;2.95;;
69703;SDS011;56967;43.538;-5.646;2022-07-22T07:58:07;5.32;;;2.70;;
69703;SDS011;56967;43.538;-5.646;2022-07-22T08:00:33;6.88;;;2.58;;
69703;SDS011;56967;43.538;-5.646;2022-07-22T08:02:59;6.30;;;2.67;;
69703;SDS011;56967;43.538;-5.646;2022-07-22T08:05:26;5.45;;;2.85;;
69703;SDS011;56967;43.538;-5.646;2022-07-22T08:07:52;8.45;;;2.80;;
69703;SDS011;56967;43.538;-5.646;2022-07-22T08:10:18;4.43;;;2.22;;
69703;SDS011;56967;43.538;-5.646;2022-07-22T08:12:45;6.07;;;2.40;;
69703;SDS011;56967;43.538;-5.646;2022-07-22T08:15:11;3.05;;;2.15;;
69703;SDS011;56967;43.538;-5.646;2022-07-22T08:17:37;5.25;;;2.40;;
69703;SDS011;56967;43.538;-5.646;2022-07-22T08:20:03;5.28;;;2.45;;
69703;SDS011;56967;43.538;-5.646;2022-07-22T08:22:30;3.92;;;2.10;;
69703;SDS011;56967;43.538;-5.646;2022-07-22T08:24:56;4.95;;;2.55;;
69703;SDS011;56967;43.538;-5.646;2022-07-22T08:27:21;3.60;;;2.33;;
69703;SDS011;56967;43.538;-5.646;2022-07-22T08:29:47;7.88;;;3.50;;
69703;SDS011;56967;43.538;-5.646;2022-07-22T08:32:12;6.03;;;2.75;;
69703;SDS011;56967;43.538;-5.646;2022-07-22T08:34:38;5.13;;;3.38;;
69703;SDS011;56967;43.538;-5.646;2022-07-22T08:37:04;3.90;;;3.03;;
69703;SDS011;56967;43.538;-5.646;2022-07-22T08:39:29;5.25;;;2.92;;
69703;SDS011;56967;43.538;-5.646;2022-07-22T08:41:55;6.80;;;3.28;;
69703;SDS011;56967;43.538;-5.646;2022-07-22T08:44:21;6.15;;;3.10;;
69703;SDS011;56967;43.538;-5.646;2022-07-22T08:46:47;6.72;;;3.50;;
69703;SDS011;56967;43.538;-5.646;2022-07-22T08:49:14;6.65;;;3.20;;
69703;SDS011;56967;43.538;-5.646;2022-07-22T08:51:40;5.30;;;3.03;;
69703;SDS011;56967;43.538;-5.646;2022-07-22T08:54:06;4.90;;;3.15;;
69703;SDS011;56967;43.538;-5.646;2022-07-22T08:56:31;5.63;;;3.20;;
69703;SDS011;56967;43.538;-5.646;2022-07-22T08:58:57;4.88;;;3.05;;
69703;SDS011;56967;43.538;-5.646;2022-07-22T09:01:23;5.55;;;3.20;;
69703;SDS011;56967;43.538;-5.646;2022-07-22T09:03:52;5.70;;;3.10;;
69703;SDS011;56967;43.538;-5.646;2022-07-22T09:06:21;6.65;;;3.15;;
69703;SDS011;56967;43.538;-5.646;2022-07-22T09:08:51;6.03;;;3.30;;
69703;SDS011;56967;43.538;-5.646;2022-07-22T09:11:20;5.47;;;4.05;;
69703;SDS011;56967;43.538;-5.646;2022-07-22T09:13:47;4.20;;;2.72;;
69703;SDS011;56967;43.538;-5.646;2022-07-22T09:16:13;7.45;;;3.28;;
69703;SDS011;56967;43.538;-5.646;2022-07-22T09:18:46;3.28;;;2.70;;
69703;SDS011;56967;43.538;-5.646;2022-07-22T09:21:16;4.13;;;3.25;;
69703;SDS011;56967;43.538;-5.646;2022-07-22T09:23:42;6.97;;;3.38;;
69703;SDS011;56967;43.538;-5.646;2022-07-22T09:26:08;6.45;;;3.85;;
69703;SDS011;56967;43.538;-5.646;2022-07-22T09:28:55;8.38;;;4.15;;
69703;SDS011;56967;43.538;-5.646;2022-07-22T09:31:25;9.45;;;4.20;;
69703;SDS011;56967;43.538;-5.646;2022-07-22T09:33:51;7.45;;;3.88;;
69703;SDS011;56967;43.538;-5.646;2022-07-22T09:36:19;15.48;;;4.00;;
69703;SDS011;56967;43.538;-5.646;2022-07-22T09:38:44;7.43;;;4.43;;
69703;SDS011;56967;43.538;-5.646;2022-07-22T09:41:10;10.48;;;4.13;;
69703;SDS011;56967;43.538;-5.646;2022-07-22T09:43:36;6.13;;;3.90;;
69703;SDS011;56967;43.538;-5.646;2022-07-22T09:46:01;6.40;;;3.47;;
69703;SDS011;56967;43.538;-5.646;2022-07-22T09:48:28;4.38;;;3.33;;
69703;SDS011;56967;43.538;-5.646;2022-07-22T09:50:54;6.85;;;3.65;;
69703;SDS011;56967;43.538;-5.646;2022-07-22T09:53:22;3.95;;;3.20;;
69703;SDS011;56967;43.538;-5.646;2022-07-22T09:55:49;8.57;;;3.30;;
69703;SDS011;56967;43.538;-5.646;2022-07-22T09:58:15;8.75;;;4.45;;
69703;SDS011;56967;43.538;-5.646;2022-07-22T10:00:42;3.90;;;2.90;;
69703;SDS011;56967;43.538;-5.646;2022-07-22T10:03:10;5.03;;;2.58;;
69703;SDS011;56967;43.538;-5.646;2022-07-22T10:05:38;3.83;;;2.60;;
69703;SDS011;56967;43.538;-5.646;2022-07-22T10:08:06;7.72;;;2.90;;
69703;SDS011;56967;43.538;-5.646;2022-07-22T10:10:33;6.60;;;3.10;;
69703;SDS011;56967;43.538;-5.646;2022-07-22T10:13:00;5.85;;;3.60;;
69703;SDS011;56967;43.538;-5.646;2022-07-22T10:15:27;8.07;;;4.72;;
69703;SDS011;56967;43.538;-5.646;2022-07-22T10:17:55;10.10;;;4.85;;
69703;SDS011;56967;43.538;-5.646;2022-07-22T10:20:23;9.98;;;4.30;;
69703;SDS011;56967;43.538;-5.646;2022-07-22T10:22:52;8.63;;;4.07;;
69703;SDS011;56967;43.538;-5.646;2022-07-22T10:25:25;15.65;;;4.53;;
69703;SDS011;56967;43.538;-5.646;2022-07-22T10:27:56;6.95;;;4.18;;
69703;SDS011;56967;43.538;-5.646;2022-07-22T10:30:28;7.28;;;3.50;;
69703;SDS011;56967;43.538;-5.646;2022-07-22T10:33:05;5.93;;;3.70;;
69703;SDS011;56967;43.538;-5.646;2022-07-22T10:38:09;8.13;;;3.83;;
69703;SDS011;56967;43.538;-5.646;2022-07-22T10:40:57;6.35;;;2.80;;
69703;SDS011;56967;43.538;-5.646;2022-07-22T10:46:06;4.85;;;2.08;;
69703;SDS011;56967;43.538;-5.646;2022-07-22T10:51:11;4.30;;;2.08;;
69703;SDS011;56967;43.538;-5.646;2022-07-22T10:59:15;4.78;;;2.38;;
69703;SDS011;56967;43.538;-5.646;2022-07-22T11:01:50;5.63;;;2.60;;
69703;SDS011;56967;43.538;-5.646;2022-07-22T11:06:53;3.97;;;2.35;;
69703;SDS011;56967;43.538;-5.646;2022-07-22T11:09:30;3.53;;;1.90;;
69703;SDS011;56967;43.538;-5.646;2022-07-22T11:11:56;10.05;;;2.60;;
69703;SDS011;56967;43.538;-5.646;2022-07-22T11:16:50;4.57;;;2.08;;
69703;SDS011;56967;43.538;-5.646;2022-07-22T11:19:21;7.35;;;2.50;;
69703;SDS011;56967;43.538;-5.646;2022-07-22T11:21:49;4.82;;;1.83;;
69703;SDS011;56967;43.538;-5.646;2022-07-22T11:24:17;4.30;;;1.90;;
69703;SDS011;56967;43.538;-5.646;2022-07-22T11:26:44;5.63;;;2.30;;
69703;SDS011;56967;43.538;-5.646;2022-07-22T11:29:15;4.20;;;2.20;;
69703;SDS011;56967;43.538;-5.646;2022-07-22T11:31:52;7.93;;;2.50;;
69703;SDS011;56967;43.538;-5.646;2022-07-22T11:34:18;4.97;;;2.10;;
69703;SDS011;56967;43.538;-5.646;2022-07-22T11:36:45;4.90;;;2.10;;
69703;SDS011;56967;43.538;-5.646;2022-07-22T11:39:12;8.55;;;2.65;;
69703;SDS011;56967;43.538;-5.646;2022-07-22T11:41:39;6.03;;;2.28;;
69703;SDS011;56967;43.538;-5.646;2022-07-22T11:44:05;4.68;;;2.20;;
69703;SDS011;56967;43.538;-5.646;2022-07-22T11:46:36;3.72;;;1.70;;
69703;SDS011;56967;43.538;-5.646;2022-07-22T11:49:05;5.15;;;2.10;;
69703;SDS011;56967;43.538;-5.646;2022-07-22T11:51:32;7.28;;;2.38;;
69703;SDS011;56967;43.538;-5.646;2022-07-22T11:54:00;6.57;;;1.95;;
69703;SDS011;56967;43.538;-5.646;2022-07-22T11:56:25;2.08;;;1.30;;
69703;SDS011;56967;43.538;-5.646;2022-07-22T11:58:51;4.55;;;1.40;;
69703;SDS011;56967;43.538;-5.646;2022-07-22T12:01:19;3.95;;;1.75;;
69703;SDS011;56967;43.538;-5.646;2022-07-22T12:03:56;4.28;;;1.70;;
69703;SDS011;56967;43.538;-5.646;2022-07-22T12:06:45;3.58;;;1.45;;
69703;SDS011;56967;43.538;-5.646;2022-07-22T12:09:22;2.85;;;1.40;;
69703;SDS011;56967;43.538;-5.646;2022-07-22T12:11:48;3.33;;;1.52;;
69703;SDS011;56967;43.538;-5.646;2022-07-22T12:14:16;5.50;;;1.95;;
69703;SDS011;56967;43.538;-5.646;2022-07-22T12:16:45;4.32;;;1.80;;
69703;SDS011;56967;43.538;-5.646;2022-07-22T12:19:23;4.07;;;1.80;;
69703;SDS011;56967;43.538;-5.646;2022-07-22T12:21:52;2.38;;;1.50;;
69703;SDS011;56967;43.538;-5.646;2022-07-22T12:24:26;4.25;;;2.10;;
69703;SDS011;56967;43.538;-5.646;2022-07-22T12:27:07;2.33;;;1.50;;
69703;SDS011;56967;43.538;-5.646;2022-07-22T12:32:06;2.80;;;1.60;;
69703;SDS011;56967;43.538;-5.646;2022-07-22T12:37:15;4.43;;;1.88;;
69703;SDS011;56967;43.538;-5.646;2022-07-22T12:39:55;6.97;;;1.83;;
69703;SDS011;56967;43.538;-5.646;2022-07-22T12:45:12;3.42;;;1.42;;
69703;SDS011;56967;43.538;-5.646;2022-07-22T12:47:46;2.22;;;1.40;;
69703;SDS011;56967;43.538;-5.646;2022-07-22T12:50:25;3.83;;;2.00;;
69703;SDS011;56967;43.538;-5.646;2022-07-22T12:52:58;3.30;;;1.58;;
69703;SDS011;56967;43.538;-5.646;2022-07-22T12:55:25;3.45;;;1.60;;
69703;SDS011;56967;43.538;-5.646;2022-07-22T12:57:52;3.17;;;1.67;;
69703;SDS011;56967;43.538;-5.646;2022-07-22T13:00:18;2.83;;;1.70;;
69703;SDS011;56967;43.538;-5.646;2022-07-22T13:02:45;5.53;;;1.92;;
69703;SDS011;56967;43.538;-5.646;2022-07-22T13:05:11;5.32;;;1.55;;
69703;SDS011;56967;43.538;-5.646;2022-07-22T13:07:36;4.20;;;1.60;;
69703;SDS011;56967;43.538;-5.646;2022-07-22T13:10:03;3.47;;;1.52;;
69703;SDS011;56967;43.538;-5.646;2022-07-22T13:12:29;5.07;;;1.65;;
69703;SDS011;56967;43.538;-5.646;2022-07-22T13:14:54;3.63;;;1.50;;
69703;SDS011;56967;43.538;-5.646;2022-07-22T13:17:20;3.50;;;1.60;;
69703;SDS011;56967;43.538;-5.646;2022-07-22T13:19:45;2.47;;;1.58;;
69703;SDS011;56967;43.538;-5.646;2022-07-22T13:22:11;3.15;;;1.50;;
69703;SDS011;56967;43.538;-5.646;2022-07-22T13:24:36;5.90;;;1.90;;
69703;SDS011;56967;43.538;-5.646;2022-07-22T13:27:02;6.18;;;2.10;;
69703;SDS011;56967;43.538;-5.646;2022-07-22T13:29:28;4.00;;;2.00;;
69703;SDS011;56967;43.538;-5.646;2022-07-22T13:31:54;6.97;;;2.40;;
69703;SDS011;56967;43.538;-5.646;2022-07-22T13:34:19;5.75;;;2.40;;
69703;SDS011;56967;43.538;-5.646;2022-07-22T13:36:45;6.07;;;2.70;;
69703;SDS011;56967;43.538;-5.646;2022-07-22T13:39:10;4.13;;;2.40;;
69703;SDS011;56967;43.538;-5.646;2022-07-22T13:41:36;5.30;;;2.90;;
69703;SDS011;56967;43.538;-5.646;2022-07-22T13:44:01;9.23;;;2.75;;
69703;SDS011;56967;43.538;-5.646;2022-07-22T13:46:27;9.25;;;2.95;;
69703;SDS011;56967;43.538;-5.646;2022-07-22T13:48:52;6.13;;;3.10;;
69703;SDS011;56967;43.538;-5.646;2022-07-22T13:51:18;5.80;;;3.25;;
69703;SDS011;56967;43.538;-5.646;2022-07-22T13:53:44;5.90;;;2.80;;
69703;SDS011;56967;43.538;-5.646;2022-07-22T13:56:10;5.22;;;2.25;;
69703;SDS011;56967;43.538;-5.646;2022-07-22T13:58:37;3.88;;;2.30;;
69703;SDS011;56967;43.538;-5.646;2022-07-22T14:01:03;4.85;;;2.65;;
69703;SDS011;56967;43.538;-5.646;2022-07-22T14:03:31;5.13;;;2.50;;
69703;SDS011;56967;43.538;-5.646;2022-07-22T14:05:57;7.13;;;2.72;;
69703;SDS011;56967;43.538;-5.646;2022-07-22T14:08:23;5.28;;;2.75;;
69703;SDS011;56967;43.538;-5.646;2022-07-22T14:10:48;8.02;;;2.72;;
69703;SDS011;56967;43.538;-5.646;2022-07-22T14:13:14;7.85;;;3.10;;
69703;SDS011;56967;43.538;-5.646;2022-07-22T14:15:40;6.53;;;2.03;;
69703;SDS011;56967;43.538;-5.646;2022-07-22T14:18:05;5.72;;;2.47;;
69703;SDS011;56967;43.538;-5.646;2022-07-22T14:20:32;5.95;;;2.25;;
69703;SDS011;56967;43.538;-5.646;2022-07-22T14:22:58;5.07;;;2.55;;
69703;SDS011;56967;43.538;-5.646;2022-07-22T14:25:24;6.65;;;2.72;;
69703;SDS011;56967;43.538;-5.646;2022-07-22T14:27:50;4.45;;;2.22;;
69703;SDS011;56967;43.538;-5.646;2022-07-22T14:30:15;4.35;;;2.20;;
69703;SDS011;56967;43.538;-5.646;2022-07-22T14:32:41;8.90;;;2.30;;
69703;SDS011;56967;43.538;-5.646;2022-07-22T14:35:07;8.23;;;2.50;;
69703;SDS011;56967;43.538;-5.646;2022-07-22T14:37:32;5.07;;;2.10;;
69703;SDS011;56967;43.538;-5.646;2022-07-22T14:40:01;7.13;;;2.30;;
69703;SDS011;56967;43.538;-5.646;2022-07-22T14:42:27;4.43;;;2.33;;
69703;SDS011;56967;43.538;-5.646;2022-07-22T14:44:53;4.55;;;2.22;;
69703;SDS011;56967;43.538;-5.646;2022-07-22T14:47:18;7.97;;;2.42;;
69703;SDS011;56967;43.538;-5.646;2022-07-22T14:49:44;6.30;;;2.42;;
69703;SDS011;56967;43.538;-5.646;2022-07-22T14:52:09;5.57;;;2.58;;
69703;SDS011;56967;43.538;-5.646;2022-07-22T14:54:35;10.02;;;2.70;;
69703;SDS011;56967;43.538;-5.646;2022-07-22T14:57:03;4.78;;;2.20;;
69703;SDS011;56967;43.538;-5.646;2022-07-22T14:59:32;5.65;;;2.30;;